sensor_id;sensor_type;location;lat;lon;timestamp;P1;durP1;ratioP1;P2;durP2;ratioP2
18726;SDS011;9492;51.888;5.186;2022-08-04T00:00:22;3.07;;;2.00;;
18726;SDS011;9492;51.888;5.186;2022-08-04T00:03:09;2.50;;;2.30;;
18726;SDS011;9492;51.888;5.186;2022-08-04T00:10:48;3.37;;;2.10;;
18726;SDS011;9492;51.888;5.186;2022-08-04T00:13:15;2.93;;;2.57;;
18726;SDS011;9492;51.888;5.186;2022-08-04T00:15:41;2.40;;;2.13;;
18726;SDS011;9492;51.888;5.186;2022-08-04T00:18:08;2.60;;;2.40;;
18726;SDS011;9492;51.888;5.186;2022-08-04T00:20:37;6.07;;;2.33;;
18726;SDS011;9492;51.888;5.186;2022-08-04T00:23:03;4.13;;;3.13;;
18726;SDS011;9492;51.888;5.186;2022-08-04T00:25:30;4.67;;;2.67;;
18726;SDS011;9492;51.888;5.186;2022-08-04T00:27:56;3.67;;;2.77;;
18726;SDS011;9492;51.888;5.186;2022-08-04T00:30:24;3.77;;;2.70;;
18726;SDS011;9492;51.888;5.186;2022-08-04T00:32:51;2.87;;;2.67;;
18726;SDS011;9492;51.888;5.186;2022-08-04T00:35:17;3.13;;;2.87;;
18726;SDS011;9492;51.888;5.186;2022-08-04T00:37:44;2.93;;;2.63;;
18726;SDS011;9492;51.888;5.186;2022-08-04T00:42:58;2.50;;;2.30;;
18726;SDS011;9492;51.888;5.186;2022-08-04T00:48:07;5.87;;;2.90;;
18726;SDS011;9492;51.888;5.186;2022-08-04T00:53:11;2.60;;;2.40;;
18726;SDS011;9492;51.888;5.186;2022-08-04T01:01:04;4.17;;;2.73;;
18726;SDS011;9492;51.888;5.186;2022-08-04T01:06:36;4.33;;;2.63;;
18726;SDS011;9492;51.888;5.186;2022-08-04T01:14:12;4.50;;;3.03;;
18726;SDS011;9492;51.888;5.186;2022-08-04T01:16:50;6.67;;;3.00;;
18726;SDS011;9492;51.888;5.186;2022-08-04T01:22:08;3.23;;;2.73;;
18726;SDS011;9492;51.888;5.186;2022-08-04T01:27:24;4.53;;;2.77;;
18726;SDS011;9492;51.888;5.186;2022-08-04T01:29:54;4.27;;;3.00;;
18726;SDS011;9492;51.888;5.186;2022-08-04T01:32:35;4.90;;;2.67;;
18726;SDS011;9492;51.888;5.186;2022-08-04T01:35:03;4.23;;;2.93;;
18726;SDS011;9492;51.888;5.186;2022-08-04T01:40:01;4.23;;;3.30;;
18726;SDS011;9492;51.888;5.186;2022-08-04T01:42:29;3.90;;;2.60;;
18726;SDS011;9492;51.888;5.186;2022-08-04T01:44:57;3.33;;;2.60;;
18726;SDS011;9492;51.888;5.186;2022-08-04T01:47:23;4.10;;;3.60;;
18726;SDS011;9492;51.888;5.186;2022-08-04T01:49:53;4.40;;;2.90;;
18726;SDS011;9492;51.888;5.186;2022-08-04T01:52:19;4.00;;;3.00;;
18726;SDS011;9492;51.888;5.186;2022-08-04T01:54:45;2.97;;;2.77;;
18726;SDS011;9492;51.888;5.186;2022-08-04T01:57:12;3.43;;;2.60;;
18726;SDS011;9492;51.888;5.186;2022-08-04T01:59:40;6.37;;;3.13;;
18726;SDS011;9492;51.888;5.186;2022-08-04T02:02:08;3.60;;;3.07;;
18726;SDS011;9492;51.888;5.186;2022-08-04T02:04:34;3.60;;;3.23;;
18726;SDS011;9492;51.888;5.186;2022-08-04T02:17:30;4.80;;;3.30;;
18726;SDS011;9492;51.888;5.186;2022-08-04T02:23:14;5.60;;;3.13;;
18726;SDS011;9492;51.888;5.186;2022-08-04T02:25:40;3.57;;;2.63;;
18726;SDS011;9492;51.888;5.186;2022-08-04T02:30:37;4.43;;;3.17;;
18726;SDS011;9492;51.888;5.186;2022-08-04T02:33:05;4.30;;;3.00;;
18726;SDS011;9492;51.888;5.186;2022-08-04T02:35:34;3.40;;;3.10;;
18726;SDS011;9492;51.888;5.186;2022-08-04T02:40:37;3.63;;;2.70;;
18726;SDS011;9492;51.888;5.186;2022-08-04T02:43:04;4.43;;;3.10;;
18726;SDS011;9492;51.888;5.186;2022-08-04T02:45:33;4.20;;;2.90;;
18726;SDS011;9492;51.888;5.186;2022-08-04T02:48:02;4.83;;;3.40;;
18726;SDS011;9492;51.888;5.186;2022-08-04T02:50:28;3.40;;;2.97;;
18726;SDS011;9492;51.888;5.186;2022-08-04T02:52:58;5.57;;;2.93;;
18726;SDS011;9492;51.888;5.186;2022-08-04T02:55:26;4.33;;;3.03;;
18726;SDS011;9492;51.888;5.186;2022-08-04T02:57:53;5.83;;;3.13;;
18726;SDS011;9492;51.888;5.186;2022-08-04T03:00:21;5.47;;;3.17;;
18726;SDS011;9492;51.888;5.186;2022-08-04T03:05:17;3.77;;;3.10;;
18726;SDS011;9492;51.888;5.186;2022-08-04T03:07:52;3.70;;;3.13;;
18726;SDS011;9492;51.888;5.186;2022-08-04T03:17:58;5.33;;;3.10;;
18726;SDS011;9492;51.888;5.186;2022-08-04T03:33:44;3.30;;;2.67;;
18726;SDS011;9492;51.888;5.186;2022-08-04T03:44:24;3.73;;;2.90;;
18726;SDS011;9492;51.888;5.186;2022-08-04T03:58:01;3.47;;;2.43;;
18726;SDS011;9492;51.888;5.186;2022-08-04T04:08:16;3.00;;;2.70;;
18726;SDS011;9492;51.888;5.186;2022-08-04T04:18:30;5.10;;;2.93;;
18726;SDS011;9492;51.888;5.186;2022-08-04T04:24:13;5.17;;;2.90;;
18726;SDS011;9492;51.888;5.186;2022-08-04T04:26:58;4.07;;;2.90;;
18726;SDS011;9492;51.888;5.186;2022-08-04T04:29:39;5.23;;;2.87;;
18726;SDS011;9492;51.888;5.186;2022-08-04T04:32:23;2.67;;;2.23;;
18726;SDS011;9492;51.888;5.186;2022-08-04T04:39:54;4.83;;;3.70;;
18726;SDS011;9492;51.888;5.186;2022-08-04T04:44:55;6.90;;;3.67;;
18726;SDS011;9492;51.888;5.186;2022-08-04T04:49:55;5.67;;;4.13;;
18726;SDS011;9492;51.888;5.186;2022-08-04T04:52:37;5.53;;;3.87;;
18726;SDS011;9492;51.888;5.186;2022-08-04T04:55:18;5.73;;;3.57;;
18726;SDS011;9492;51.888;5.186;2022-08-04T04:57:45;5.37;;;3.70;;
18726;SDS011;9492;51.888;5.186;2022-08-04T05:00:13;5.83;;;4.53;;
18726;SDS011;9492;51.888;5.186;2022-08-04T05:11:01;7.47;;;3.80;;
18726;SDS011;9492;51.888;5.186;2022-08-04T05:13:31;4.33;;;3.90;;
18726;SDS011;9492;51.888;5.186;2022-08-04T05:18:41;4.73;;;4.07;;
18726;SDS011;9492;51.888;5.186;2022-08-04T05:21:11;6.60;;;3.37;;
18726;SDS011;9492;51.888;5.186;2022-08-04T05:23:40;5.57;;;3.90;;
18726;SDS011;9492;51.888;5.186;2022-08-04T05:26:10;5.47;;;4.37;;
18726;SDS011;9492;51.888;5.186;2022-08-04T05:31:09;5.97;;;3.83;;
18726;SDS011;9492;51.888;5.186;2022-08-04T05:33:42;4.43;;;3.43;;
18726;SDS011;9492;51.888;5.186;2022-08-04T05:36:10;5.40;;;4.17;;
18726;SDS011;9492;51.888;5.186;2022-08-04T05:38:40;4.10;;;3.70;;
18726;SDS011;9492;51.888;5.186;2022-08-04T05:41:07;4.37;;;3.57;;
18726;SDS011;9492;51.888;5.186;2022-08-04T05:43:34;5.10;;;3.90;;
18726;SDS011;9492;51.888;5.186;2022-08-04T05:46:01;5.40;;;4.23;;
18726;SDS011;9492;51.888;5.186;2022-08-04T05:48:27;6.27;;;3.90;;
18726;SDS011;9492;51.888;5.186;2022-08-04T05:50:53;6.87;;;3.97;;
18726;SDS011;9492;51.888;5.186;2022-08-04T05:53:20;6.37;;;3.83;;
18726;SDS011;9492;51.888;5.186;2022-08-04T05:55:47;6.00;;;3.80;;
18726;SDS011;9492;51.888;5.186;2022-08-04T05:58:13;4.67;;;3.70;;
18726;SDS011;9492;51.888;5.186;2022-08-04T06:00:41;5.00;;;3.73;;
18726;SDS011;9492;51.888;5.186;2022-08-04T06:03:08;5.67;;;3.90;;
18726;SDS011;9492;51.888;5.186;2022-08-04T06:05:35;5.63;;;3.70;;
18726;SDS011;9492;51.888;5.186;2022-08-04T06:08:01;5.27;;;3.60;;
18726;SDS011;9492;51.888;5.186;2022-08-04T06:10:28;5.33;;;3.47;;
18726;SDS011;9492;51.888;5.186;2022-08-04T06:12:57;5.63;;;3.67;;
18726;SDS011;9492;51.888;5.186;2022-08-04T06:15:25;5.60;;;3.43;;
18726;SDS011;9492;51.888;5.186;2022-08-04T06:17:57;4.40;;;3.80;;
18726;SDS011;9492;51.888;5.186;2022-08-04T06:20:27;5.13;;;3.73;;
18726;SDS011;9492;51.888;5.186;2022-08-04T06:22:55;5.10;;;4.10;;
18726;SDS011;9492;51.888;5.186;2022-08-04T06:25:23;5.07;;;3.87;;
18726;SDS011;9492;51.888;5.186;2022-08-04T06:27:50;5.87;;;4.13;;
18726;SDS011;9492;51.888;5.186;2022-08-04T06:30:16;5.93;;;4.47;;
18726;SDS011;9492;51.888;5.186;2022-08-04T06:32:43;4.93;;;4.03;;
18726;SDS011;9492;51.888;5.186;2022-08-04T06:35:19;5.40;;;4.40;;
18726;SDS011;9492;51.888;5.186;2022-08-04T06:37:46;5.93;;;4.33;;
18726;SDS011;9492;51.888;5.186;2022-08-04T06:40:13;8.03;;;4.37;;
18726;SDS011;9492;51.888;5.186;2022-08-04T06:42:39;6.07;;;4.33;;
18726;SDS011;9492;51.888;5.186;2022-08-04T06:45:06;6.40;;;4.27;;
18726;SDS011;9492;51.888;5.186;2022-08-04T06:47:32;8.50;;;4.00;;
18726;SDS011;9492;51.888;5.186;2022-08-04T06:49:58;7.83;;;4.30;;
18726;SDS011;9492;51.888;5.186;2022-08-04T06:52:24;7.00;;;3.70;;
18726;SDS011;9492;51.888;5.186;2022-08-04T06:54:51;6.93;;;3.80;;
18726;SDS011;9492;51.888;5.186;2022-08-04T06:57:18;5.20;;;3.90;;
18726;SDS011;9492;51.888;5.186;2022-08-04T06:59:45;4.93;;;3.30;;
18726;SDS011;9492;51.888;5.186;2022-08-04T07:02:16;7.93;;;3.70;;
18726;SDS011;9492;51.888;5.186;2022-08-04T07:04:43;4.37;;;3.27;;
18726;SDS011;9492;51.888;5.186;2022-08-04T07:07:10;4.93;;;2.97;;
18726;SDS011;9492;51.888;5.186;2022-08-04T07:09:36;5.47;;;2.80;;
18726;SDS011;9492;51.888;5.186;2022-08-04T07:12:02;4.53;;;2.57;;
18726;SDS011;9492;51.888;5.186;2022-08-04T07:14:28;6.57;;;2.70;;
18726;SDS011;9492;51.888;5.186;2022-08-04T07:16:55;6.20;;;2.93;;
18726;SDS011;9492;51.888;5.186;2022-08-04T07:19:22;4.93;;;2.47;;
18726;SDS011;9492;51.888;5.186;2022-08-04T07:21:48;5.17;;;2.70;;
18726;SDS011;9492;51.888;5.186;2022-08-04T07:24:15;9.93;;;2.83;;
18726;SDS011;9492;51.888;5.186;2022-08-04T07:26:41;4.67;;;2.30;;
18726;SDS011;9492;51.888;5.186;2022-08-04T07:29:07;5.73;;;2.67;;
18726;SDS011;9492;51.888;5.186;2022-08-04T07:31:35;4.57;;;2.63;;
18726;SDS011;9492;51.888;5.186;2022-08-04T07:34:02;3.43;;;2.43;;
18726;SDS011;9492;51.888;5.186;2022-08-04T07:36:28;5.33;;;3.10;;
18726;SDS011;9492;51.888;5.186;2022-08-04T07:38:54;4.77;;;2.20;;
18726;SDS011;9492;51.888;5.186;2022-08-04T07:41:21;5.03;;;2.63;;
18726;SDS011;9492;51.888;5.186;2022-08-04T07:43:47;4.75;;;2.78;;
18726;SDS011;9492;51.888;5.186;2022-08-04T07:46:13;4.15;;;2.72;;
18726;SDS011;9492;51.888;5.186;2022-08-04T07:48:40;5.85;;;2.53;;
18726;SDS011;9492;51.888;5.186;2022-08-04T07:51:06;5.25;;;2.65;;
18726;SDS011;9492;51.888;5.186;2022-08-04T07:53:32;3.90;;;2.75;;
18726;SDS011;9492;51.888;5.186;2022-08-04T07:55:59;5.15;;;3.22;;
18726;SDS011;9492;51.888;5.186;2022-08-04T07:58:26;6.22;;;2.50;;
18726;SDS011;9492;51.888;5.186;2022-08-04T08:00:52;6.95;;;3.05;;
18726;SDS011;9492;51.888;5.186;2022-08-04T08:03:18;6.18;;;2.92;;
18726;SDS011;9492;51.888;5.186;2022-08-04T08:05:45;5.38;;;2.80;;
18726;SDS011;9492;51.888;5.186;2022-08-04T08:08:11;6.45;;;2.30;;
18726;SDS011;9492;51.888;5.186;2022-08-04T08:10:37;4.47;;;2.40;;
18726;SDS011;9492;51.888;5.186;2022-08-04T08:13:06;4.65;;;2.42;;
18726;SDS011;9492;51.888;5.186;2022-08-04T08:15:32;4.72;;;2.42;;
18726;SDS011;9492;51.888;5.186;2022-08-04T08:18:00;5.80;;;2.50;;
18726;SDS011;9492;51.888;5.186;2022-08-04T08:20:27;6.35;;;2.65;;
18726;SDS011;9492;51.888;5.186;2022-08-04T08:22:53;4.18;;;2.33;;
18726;SDS011;9492;51.888;5.186;2022-08-04T08:25:19;5.70;;;2.45;;
18726;SDS011;9492;51.888;5.186;2022-08-04T08:27:45;3.88;;;2.10;;
18726;SDS011;9492;51.888;5.186;2022-08-04T08:30:11;4.35;;;2.20;;
18726;SDS011;9492;51.888;5.186;2022-08-04T08:32:37;4.85;;;1.75;;
18726;SDS011;9492;51.888;5.186;2022-08-04T08:35:03;3.58;;;1.90;;
18726;SDS011;9492;51.888;5.186;2022-08-04T08:37:34;5.32;;;2.17;;
18726;SDS011;9492;51.888;5.186;2022-08-04T08:48:05;3.00;;;1.58;;
18726;SDS011;9492;51.888;5.186;2022-08-04T08:50:44;2.85;;;1.58;;
18726;SDS011;9492;51.888;5.186;2022-08-04T08:55:55;4.28;;;2.10;;
18726;SDS011;9492;51.888;5.186;2022-08-04T08:58:29;3.70;;;1.92;;
18726;SDS011;9492;51.888;5.186;2022-08-04T09:03:34;2.97;;;1.60;;
18726;SDS011;9492;51.888;5.186;2022-08-04T09:06:46;3.97;;;1.85;;
18726;SDS011;9492;51.888;5.186;2022-08-04T09:08:58;4.03;;;1.83;;
18726;SDS011;9492;51.888;5.186;2022-08-04T09:11:27;3.65;;;1.77;;
18726;SDS011;9492;51.888;5.186;2022-08-04T09:14:04;3.95;;;1.92;;
18726;SDS011;9492;51.888;5.186;2022-08-04T09:16:34;3.90;;;1.42;;
18726;SDS011;9492;51.888;5.186;2022-08-04T09:19:09;5.10;;;1.70;;
18726;SDS011;9492;51.888;5.186;2022-08-04T09:21:38;4.20;;;1.75;;
18726;SDS011;9492;51.888;5.186;2022-08-04T09:24:51;4.15;;;1.88;;
18726;SDS011;9492;51.888;5.186;2022-08-04T09:29:21;3.08;;;1.40;;
18726;SDS011;9492;51.888;5.186;2022-08-04T09:31:54;7.93;;;1.83;;
18726;SDS011;9492;51.888;5.186;2022-08-04T09:37:31;2.53;;;1.70;;
18726;SDS011;9492;51.888;5.186;2022-08-04T09:40:26;3.72;;;1.63;;
18726;SDS011;9492;51.888;5.186;2022-08-04T09:42:56;1.20;;;1.10;;
18726;SDS011;9492;51.888;5.186;2022-08-04T09:47:56;3.97;;;1.85;;
18726;SDS011;9492;51.888;5.186;2022-08-04T09:53:05;1.88;;;1.33;;
18726;SDS011;9492;51.888;5.186;2022-08-04T10:01:00;1.88;;;1.15;;
18726;SDS011;9492;51.888;5.186;2022-08-04T10:03:28;2.08;;;1.25;;
18726;SDS011;9492;51.888;5.186;2022-08-04T10:06:09;1.58;;;0.98;;
18726;SDS011;9492;51.888;5.186;2022-08-04T10:11:15;1.10;;;1.00;;
18726;SDS011;9492;51.888;5.186;2022-08-04T10:14:04;1.42;;;1.00;;
18726;SDS011;9492;51.888;5.186;2022-08-04T10:16:52;1.30;;;1.20;;
18726;SDS011;9492;51.888;5.186;2022-08-04T10:24:30;1.95;;;1.58;;
18726;SDS011;9492;51.888;5.186;2022-08-04T10:29:37;2.20;;;1.40;;
18726;SDS011;9492;51.888;5.186;2022-08-04T10:32:08;2.83;;;1.30;;
18726;SDS011;9492;51.888;5.186;2022-08-04T10:37:23;3.30;;;1.30;;
18726;SDS011;9492;51.888;5.186;2022-08-04T10:39:54;2.15;;;1.55;;
18726;SDS011;9492;51.888;5.186;2022-08-04T10:42:43;1.30;;;1.20;;
18726;SDS011;9492;51.888;5.186;2022-08-04T10:45:16;1.50;;;1.40;;
18726;SDS011;9492;51.888;5.186;2022-08-04T10:47:51;4.60;;;1.70;;
18726;SDS011;9492;51.888;5.186;2022-08-04T10:50:19;2.70;;;1.33;;
18726;SDS011;9492;51.888;5.186;2022-08-04T10:52:47;3.28;;;1.48;;
18726;SDS011;9492;51.888;5.186;2022-08-04T10:55:20;3.30;;;1.70;;
18726;SDS011;9492;51.888;5.186;2022-08-04T10:57:51;1.42;;;1.33;;
18726;SDS011;9492;51.888;5.186;2022-08-04T11:00:22;2.72;;;1.40;;
18726;SDS011;9492;51.888;5.186;2022-08-04T11:05:39;1.92;;;1.70;;
18726;SDS011;9492;51.888;5.186;2022-08-04T11:08:11;1.97;;;1.70;;
18726;SDS011;9492;51.888;5.186;2022-08-04T11:10:58;1.67;;;1.58;;
18726;SDS011;9492;51.888;5.186;2022-08-04T11:13:28;3.95;;;1.90;;
18726;SDS011;9492;51.888;5.186;2022-08-04T11:15:57;3.17;;;1.73;;
18726;SDS011;9492;51.888;5.186;2022-08-04T11:18:28;2.23;;;1.87;;
18726;SDS011;9492;51.888;5.186;2022-08-04T11:21:05;2.22;;;1.60;;
18726;SDS011;9492;51.888;5.186;2022-08-04T11:23:33;2.72;;;1.90;;
18726;SDS011;9492;51.888;5.186;2022-08-04T11:26:20;2.45;;;1.58;;
18726;SDS011;9492;51.888;5.186;2022-08-04T11:29:08;1.80;;;1.67;;
18726;SDS011;9492;51.888;5.186;2022-08-04T11:31:39;4.13;;;1.80;;
18726;SDS011;9492;51.888;5.186;2022-08-04T11:39:34;5.00;;;2.22;;
18726;SDS011;9492;51.888;5.186;2022-08-04T11:44:42;1.63;;;1.30;;
18726;SDS011;9492;51.888;5.186;2022-08-04T11:47:20;3.35;;;1.50;;
18726;SDS011;9492;51.888;5.186;2022-08-04T11:52:37;2.53;;;1.63;;
18726;SDS011;9492;51.888;5.186;2022-08-04T11:55:04;2.05;;;1.60;;
18726;SDS011;9492;51.888;5.186;2022-08-04T11:57:31;3.22;;;1.65;;
18726;SDS011;9492;51.888;5.186;2022-08-04T11:59:57;3.72;;;1.50;;
18726;SDS011;9492;51.888;5.186;2022-08-04T12:02:40;3.22;;;1.63;;
18726;SDS011;9492;51.888;5.186;2022-08-04T12:05:11;1.20;;;1.10;;
18726;SDS011;9492;51.888;5.186;2022-08-04T12:12:44;3.35;;;1.50;;
18726;SDS011;9492;51.888;5.186;2022-08-04T12:15:28;4.03;;;1.65;;
18726;SDS011;9492;51.888;5.186;2022-08-04T12:20:41;2.05;;;1.30;;
18726;SDS011;9492;51.888;5.186;2022-08-04T12:23:14;2.25;;;1.30;;
18726;SDS011;9492;51.888;5.186;2022-08-04T12:25:40;2.72;;;1.23;;
18726;SDS011;9492;51.888;5.186;2022-08-04T12:28:24;4.78;;;1.45;;
18726;SDS011;9492;51.888;5.186;2022-08-04T12:30:51;1.50;;;1.15;;
18726;SDS011;9492;51.888;5.186;2022-08-04T12:33:23;1.75;;;1.30;;
18726;SDS011;9492;51.888;5.186;2022-08-04T12:35:50;2.15;;;1.23;;
18726;SDS011;9492;51.888;5.186;2022-08-04T12:38:17;2.42;;;1.20;;
18726;SDS011;9492;51.888;5.186;2022-08-04T12:40:46;1.85;;;1.20;;
18726;SDS011;9492;51.888;5.186;2022-08-04T12:45:48;1.45;;;1.17;;
18726;SDS011;9492;51.888;5.186;2022-08-04T12:48:14;4.32;;;1.40;;
18726;SDS011;9492;51.888;5.186;2022-08-04T12:50:42;2.45;;;1.23;;
18726;SDS011;9492;51.888;5.186;2022-08-04T12:53:12;3.28;;;1.55;;
18726;SDS011;9492;51.888;5.186;2022-08-04T12:55:43;3.25;;;1.50;;
18726;SDS011;9492;51.888;5.186;2022-08-04T12:58:11;4.18;;;1.20;;
18726;SDS011;9492;51.888;5.186;2022-08-04T13:00:37;2.20;;;1.60;;
18726;SDS011;9492;51.888;5.186;2022-08-04T13:03:05;1.27;;;1.00;;
18726;SDS011;9492;51.888;5.186;2022-08-04T13:05:31;1.98;;;1.35;;
18726;SDS011;9492;51.888;5.186;2022-08-04T13:07:58;2.30;;;1.27;;
18726;SDS011;9492;51.888;5.186;2022-08-04T13:10:26;1.92;;;1.35;;
18726;SDS011;9492;51.888;5.186;2022-08-04T13:12:57;3.10;;;1.60;;
18726;SDS011;9492;51.888;5.186;2022-08-04T13:15:24;2.67;;;1.40;;
18726;SDS011;9492;51.888;5.186;2022-08-04T13:20:24;2.53;;;1.58;;
18726;SDS011;9492;51.888;5.186;2022-08-04T13:22:50;3.38;;;1.73;;
18726;SDS011;9492;51.888;5.186;2022-08-04T13:25:16;3.17;;;1.40;;
18726;SDS011;9492;51.888;5.186;2022-08-04T13:27:42;2.15;;;1.30;;
18726;SDS011;9492;51.888;5.186;2022-08-04T13:30:11;1.75;;;1.30;;
18726;SDS011;9492;51.888;5.186;2022-08-04T13:32:38;1.65;;;1.38;;
18726;SDS011;9492;51.888;5.186;2022-08-04T13:35:05;1.70;;;1.50;;
18726;SDS011;9492;51.888;5.186;2022-08-04T13:37:35;1.50;;;1.40;;
18726;SDS011;9492;51.888;5.186;2022-08-04T13:40:04;3.90;;;1.60;;
18726;SDS011;9492;51.888;5.186;2022-08-04T13:42:32;3.13;;;1.65;;
18726;SDS011;9492;51.888;5.186;2022-08-04T13:44:59;6.32;;;2.38;;
18726;SDS011;9492;51.888;5.186;2022-08-04T13:47:27;4.53;;;1.88;;
18726;SDS011;9492;51.888;5.186;2022-08-04T13:52:32;3.72;;;1.67;;
18726;SDS011;9492;51.888;5.186;2022-08-04T13:54:58;2.45;;;1.25;;
18726;SDS011;9492;51.888;5.186;2022-08-04T13:57:31;2.10;;;1.60;;
18726;SDS011;9492;51.888;5.186;2022-08-04T13:59:59;1.30;;;1.20;;
18726;SDS011;9492;51.888;5.186;2022-08-04T14:04:56;3.60;;;1.55;;
18726;SDS011;9492;51.888;5.186;2022-08-04T14:07:23;1.45;;;1.20;;
18726;SDS011;9492;51.888;5.186;2022-08-04T14:09:49;1.75;;;1.45;;
18726;SDS011;9492;51.888;5.186;2022-08-04T14:12:16;1.75;;;1.13;;
18726;SDS011;9492;51.888;5.186;2022-08-04T14:14:44;2.55;;;1.65;;
18726;SDS011;9492;51.888;5.186;2022-08-04T14:17:11;2.30;;;1.30;;
18726;SDS011;9492;51.888;5.186;2022-08-04T14:27:29;1.90;;;1.23;;
18726;SDS011;9492;51.888;5.186;2022-08-04T14:29:55;1.60;;;1.10;;
18726;SDS011;9492;51.888;5.186;2022-08-04T14:32:21;2.03;;;1.13;;
18726;SDS011;9492;51.888;5.186;2022-08-04T14:34:48;1.77;;;1.20;;
18726;SDS011;9492;51.888;5.186;2022-08-04T14:37:15;3.10;;;1.40;;
18726;SDS011;9492;51.888;5.186;2022-08-04T14:39:52;2.08;;;1.20;;
18726;SDS011;9492;51.888;5.186;2022-08-04T14:42:21;1.42;;;1.33;;
18726;SDS011;9492;51.888;5.186;2022-08-04T14:45:04;2.33;;;1.50;;
18726;SDS011;9492;51.888;5.186;2022-08-04T14:47:40;2.45;;;1.50;;
18726;SDS011;9492;51.888;5.186;2022-08-04T14:50:07;2.00;;;1.33;;
18726;SDS011;9492;51.888;5.186;2022-08-04T14:52:33;1.63;;;1.27;;
18726;SDS011;9492;51.888;5.186;2022-08-04T14:55:15;1.98;;;1.33;;
18726;SDS011;9492;51.888;5.186;2022-08-04T14:57:42;2.03;;;1.00;;
18726;SDS011;9492;51.888;5.186;2022-08-04T15:00:08;2.63;;;1.13;;
18726;SDS011;9492;51.888;5.186;2022-08-04T15:02:34;1.60;;;1.10;;
18726;SDS011;9492;51.888;5.186;2022-08-04T15:05:02;2.83;;;1.30;;
18726;SDS011;9492;51.888;5.186;2022-08-04T15:07:29;4.80;;;1.20;;
18726;SDS011;9492;51.888;5.186;2022-08-04T15:09:56;1.17;;;1.02;;
18726;SDS011;9492;51.888;5.186;2022-08-04T15:12:22;1.67;;;1.08;;
18726;SDS011;9492;51.888;5.186;2022-08-04T15:14:48;2.45;;;1.20;;
18726;SDS011;9492;51.888;5.186;2022-08-04T15:17:14;1.45;;;1.30;;
18726;SDS011;9492;51.888;5.186;2022-08-04T15:19:41;4.03;;;1.20;;
18726;SDS011;9492;51.888;5.186;2022-08-04T15:22:08;2.67;;;1.15;;
18726;SDS011;9492;51.888;5.186;2022-08-04T15:24:34;1.50;;;1.25;;
18726;SDS011;9492;51.888;5.186;2022-08-04T15:27:00;2.78;;;1.35;;
18726;SDS011;9492;51.888;5.186;2022-08-04T15:29:37;1.60;;;1.10;;
18726;SDS011;9492;51.888;5.186;2022-08-04T15:32:05;1.67;;;1.08;;
18726;SDS011;9492;51.888;5.186;2022-08-04T15:34:45;3.33;;;1.30;;
18726;SDS011;9492;51.888;5.186;2022-08-04T15:37:12;1.48;;;1.25;;
18726;SDS011;9492;51.888;5.186;2022-08-04T15:39:44;1.83;;;1.02;;
18726;SDS011;9492;51.888;5.186;2022-08-04T15:42:20;4.32;;;1.10;;
18726;SDS011;9492;51.888;5.186;2022-08-04T15:44:53;6.00;;;1.25;;
18726;SDS011;9492;51.888;5.186;2022-08-04T15:47:23;1.27;;;1.10;;
18726;SDS011;9492;51.888;5.186;2022-08-04T15:50:10;2.65;;;1.30;;
18726;SDS011;9492;51.888;5.186;2022-08-04T15:55:34;2.13;;;1.60;;
18726;SDS011;9492;51.888;5.186;2022-08-04T15:58:01;3.22;;;1.27;;
18726;SDS011;9492;51.888;5.186;2022-08-04T16:00:28;3.22;;;1.63;;
18726;SDS011;9492;51.888;5.186;2022-08-04T16:03:39;2.58;;;1.50;;
18726;SDS011;9492;51.888;5.186;2022-08-04T16:08:56;1.88;;;1.10;;
18726;SDS011;9492;51.888;5.186;2022-08-04T16:19:03;4.00;;;1.42;;
18726;SDS011;9492;51.888;5.186;2022-08-04T16:21:29;2.58;;;1.33;;
18726;SDS011;9492;51.888;5.186;2022-08-04T16:24:16;2.45;;;1.35;;
18726;SDS011;9492;51.888;5.186;2022-08-04T16:26:44;3.70;;;1.60;;
18726;SDS011;9492;51.888;5.186;2022-08-04T16:34:33;3.88;;;1.50;;
18726;SDS011;9492;51.888;5.186;2022-08-04T16:37:00;2.15;;;1.20;;
18726;SDS011;9492;51.888;5.186;2022-08-04T16:39:27;3.28;;;1.50;;
18726;SDS011;9492;51.888;5.186;2022-08-04T16:41:53;3.20;;;1.60;;
18726;SDS011;9492;51.888;5.186;2022-08-04T16:46:58;2.78;;;1.60;;
18726;SDS011;9492;51.888;5.186;2022-08-04T16:49:25;2.85;;;1.60;;
18726;SDS011;9492;51.888;5.186;2022-08-04T16:51:51;3.28;;;1.70;;
18726;SDS011;9492;51.888;5.186;2022-08-04T16:54:17;3.05;;;1.77;;
18726;SDS011;9492;51.888;5.186;2022-08-04T16:56:44;2.15;;;1.52;;
18726;SDS011;9492;51.888;5.186;2022-08-04T16:59:11;2.78;;;1.52;;
18726;SDS011;9492;51.888;5.186;2022-08-04T17:01:48;2.50;;;1.35;;
18726;SDS011;9492;51.888;5.186;2022-08-04T17:04:14;3.70;;;1.55;;
18726;SDS011;9492;51.888;5.186;2022-08-04T17:06:41;2.70;;;1.40;;
18726;SDS011;9492;51.888;5.186;2022-08-04T17:09:09;1.92;;;1.30;;
18726;SDS011;9492;51.888;5.186;2022-08-04T17:11:35;3.30;;;1.42;;
18726;SDS011;9492;51.888;5.186;2022-08-04T17:14:02;2.13;;;1.02;;
18726;SDS011;9492;51.888;5.186;2022-08-04T17:16:28;2.35;;;1.50;;
18726;SDS011;9492;51.888;5.186;2022-08-04T17:18:54;3.17;;;1.50;;
18726;SDS011;9492;51.888;5.186;2022-08-04T17:21:23;1.45;;;1.00;;
18726;SDS011;9492;51.888;5.186;2022-08-04T17:23:50;2.42;;;1.38;;
18726;SDS011;9492;51.888;5.186;2022-08-04T17:26:21;2.65;;;1.40;;
18726;SDS011;9492;51.888;5.186;2022-08-04T17:28:49;1.83;;;1.50;;
18726;SDS011;9492;51.888;5.186;2022-08-04T17:31:18;2.28;;;1.20;;
18726;SDS011;9492;51.888;5.186;2022-08-04T17:33:45;3.45;;;1.48;;
18726;SDS011;9492;51.888;5.186;2022-08-04T17:36:11;2.47;;;1.23;;
18726;SDS011;9492;51.888;5.186;2022-08-04T17:38:40;3.40;;;1.33;;
18726;SDS011;9492;51.888;5.186;2022-08-04T17:41:08;1.38;;;1.23;;
18726;SDS011;9492;51.888;5.186;2022-08-04T17:43:35;2.80;;;1.10;;
18726;SDS011;9492;51.888;5.186;2022-08-04T17:48:53;2.10;;;1.05;;
18726;SDS011;9492;51.888;5.186;2022-08-04T17:51:20;4.22;;;1.65;;
18726;SDS011;9492;51.888;5.186;2022-08-04T17:53:46;3.70;;;1.23;;
18726;SDS011;9492;51.888;5.186;2022-08-04T17:56:33;3.53;;;1.33;;
18726;SDS011;9492;51.888;5.186;2022-08-04T18:04:27;2.03;;;1.20;;
18726;SDS011;9492;51.888;5.186;2022-08-04T18:06:57;1.52;;;1.05;;
18726;SDS011;9492;51.888;5.186;2022-08-04T18:09:27;2.38;;;1.27;;
18726;SDS011;9492;51.888;5.186;2022-08-04T18:11:55;1.20;;;1.10;;
18726;SDS011;9492;51.888;5.186;2022-08-04T18:14:21;1.83;;;1.20;;
18726;SDS011;9492;51.888;5.186;2022-08-04T18:16:47;1.47;;;1.20;;
18726;SDS011;9492;51.888;5.186;2022-08-04T18:19:14;3.45;;;1.75;;
18726;SDS011;9492;51.888;5.186;2022-08-04T18:21:40;3.17;;;1.55;;
18726;SDS011;9492;51.888;5.186;2022-08-04T18:24:07;3.60;;;1.30;;
18726;SDS011;9492;51.888;5.186;2022-08-04T18:26:33;1.70;;;1.30;;
18726;SDS011;9492;51.888;5.186;2022-08-04T18:29:02;1.65;;;1.23;;
18726;SDS011;9492;51.888;5.186;2022-08-04T18:31:28;2.20;;;1.10;;
18726;SDS011;9492;51.888;5.186;2022-08-04T18:33:54;2.67;;;1.27;;
18726;SDS011;9492;51.888;5.186;2022-08-04T18:36:20;2.10;;;1.20;;
18726;SDS011;9492;51.888;5.186;2022-08-04T18:38:46;2.60;;;1.40;;
18726;SDS011;9492;51.888;5.186;2022-08-04T18:41:12;5.20;;;1.60;;
18726;SDS011;9492;51.888;5.186;2022-08-04T18:43:38;2.73;;;1.20;;
18726;SDS011;9492;51.888;5.186;2022-08-04T18:46:04;3.80;;;1.50;;
18726;SDS011;9492;51.888;5.186;2022-08-04T18:48:30;2.80;;;1.20;;
18726;SDS011;9492;51.888;5.186;2022-08-04T18:50:59;1.40;;;1.30;;
18726;SDS011;9492;51.888;5.186;2022-08-04T18:53:25;1.87;;;1.00;;
18726;SDS011;9492;51.888;5.186;2022-08-04T18:55:51;3.40;;;1.10;;
18726;SDS011;9492;51.888;5.186;2022-08-04T18:58:19;3.03;;;1.50;;
18726;SDS011;9492;51.888;5.186;2022-08-04T19:00:45;1.40;;;1.07;;
18726;SDS011;9492;51.888;5.186;2022-08-04T19:03:12;3.17;;;1.00;;
18726;SDS011;9492;51.888;5.186;2022-08-04T19:05:38;2.97;;;1.37;;
18726;SDS011;9492;51.888;5.186;2022-08-04T19:08:04;2.60;;;1.37;;
18726;SDS011;9492;51.888;5.186;2022-08-04T19:10:30;2.20;;;1.30;;
18726;SDS011;9492;51.888;5.186;2022-08-04T19:12:56;1.67;;;1.30;;
18726;SDS011;9492;51.888;5.186;2022-08-04T19:15:24;2.57;;;1.20;;
18726;SDS011;9492;51.888;5.186;2022-08-04T19:17:54;1.55;;;1.25;;
18726;SDS011;9492;51.888;5.186;2022-08-04T19:20:20;1.97;;;1.20;;
18726;SDS011;9492;51.888;5.186;2022-08-04T19:22:46;3.53;;;1.43;;